sensor_id;sensor_type;location;lat;lon;timestamp;P1;durP1;ratioP1;P2;durP2;ratioP2
41943;SDS011;27636;52.610;13.244;2023-04-09T00:04:31;29.75;;;11.05;;
41943;SDS011;27636;52.610;13.244;2023-04-09T00:09:36;25.92;;;11.48;;
41943;SDS011;27636;52.610;13.244;2023-04-09T00:14:40;22.48;;;11.52;;
41943;SDS011;27636;52.610;13.244;2023-04-09T00:19:43;29.58;;;11.95;;
41943;SDS011;27636;52.610;13.244;2023-04-09T00:24:48;26.40;;;11.18;;
41943;SDS011;27636;52.610;13.244;2023-04-09T00:29:52;31.52;;;12.18;;
41943;SDS011;27636;52.610;13.244;2023-04-09T00:34:55;28.43;;;11.57;;
41943;SDS011;27636;52.610;13.244;2023-04-09T00:40:00;27.40;;;12.38;;
41943;SDS011;27636;52.610;13.244;2023-04-09T00:45:04;29.70;;;12.13;;
41943;SDS011;27636;52.610;13.244;2023-04-09T00:55:14;23.90;;;9.65;;
41943;SDS011;27636;52.610;13.244;2023-04-09T01:00:18;31.02;;;11.68;;
41943;SDS011;27636;52.610;13.244;2023-04-09T01:05:22;27.42;;;12.45;;
41943;SDS011;27636;52.610;13.244;2023-04-09T01:10:34;28.67;;;11.30;;
41943;SDS011;27636;52.610;13.244;2023-04-09T01:15:43;28.42;;;12.30;;
41943;SDS011;27636;52.610;13.244;2023-04-09T01:20:51;25.42;;;11.05;;
41943;SDS011;27636;52.610;13.244;2023-04-09T01:26:02;25.70;;;11.18;;
41943;SDS011;27636;52.610;13.244;2023-04-09T01:31:25;30.77;;;11.77;;
41943;SDS011;27636;52.610;13.244;2023-04-09T01:36:32;23.25;;;11.07;;
41943;SDS011;27636;52.610;13.244;2023-04-09T01:46:43;27.93;;;11.93;;
41943;SDS011;27636;52.610;13.244;2023-04-09T01:51:49;34.28;;;14.82;;
41943;SDS011;27636;52.610;13.244;2023-04-09T01:56:52;26.92;;;12.02;;
41943;SDS011;27636;52.610;13.244;2023-04-09T02:01:58;32.55;;;12.93;;
41943;SDS011;27636;52.610;13.244;2023-04-09T02:07:07;29.92;;;11.95;;
41943;SDS011;27636;52.610;13.244;2023-04-09T02:12:15;36.47;;;14.27;;
41943;SDS011;27636;52.610;13.244;2023-04-09T02:17:22;30.13;;;11.38;;
41943;SDS011;27636;52.610;13.244;2023-04-09T02:22:25;34.15;;;13.23;;
41943;SDS011;27636;52.610;13.244;2023-04-09T02:27:29;35.75;;;13.35;;
41943;SDS011;27636;52.610;13.244;2023-04-09T02:32:34;40.83;;;15.23;;
41943;SDS011;27636;52.610;13.244;2023-04-09T02:37:37;46.90;;;17.80;;
41943;SDS011;27636;52.610;13.244;2023-04-09T02:42:41;36.28;;;14.55;;
41943;SDS011;27636;52.610;13.244;2023-04-09T02:47:45;34.42;;;12.48;;
41943;SDS011;27636;52.610;13.244;2023-04-09T02:52:49;26.38;;;12.68;;
41943;SDS011;27636;52.610;13.244;2023-04-09T02:57:53;28.08;;;13.00;;
41943;SDS011;27636;52.610;13.244;2023-04-09T03:02:57;24.05;;;10.60;;
41943;SDS011;27636;52.610;13.244;2023-04-09T03:08:01;31.08;;;11.65;;
41943;SDS011;27636;52.610;13.244;2023-04-09T03:13:04;24.80;;;10.90;;
41943;SDS011;27636;52.610;13.244;2023-04-09T03:18:09;27.77;;;12.00;;
41943;SDS011;27636;52.610;13.244;2023-04-09T03:23:12;23.55;;;11.13;;
41943;SDS011;27636;52.610;13.244;2023-04-09T03:28:22;31.35;;;12.88;;
41943;SDS011;27636;52.610;13.244;2023-04-09T03:33:29;32.38;;;12.23;;
41943;SDS011;27636;52.610;13.244;2023-04-09T03:38:34;37.25;;;12.23;;
41943;SDS011;27636;52.610;13.244;2023-04-09T03:43:43;28.52;;;11.75;;
41943;SDS011;27636;52.610;13.244;2023-04-09T03:48:51;28.98;;;11.70;;
41943;SDS011;27636;52.610;13.244;2023-04-09T03:53:55;31.85;;;11.93;;
41943;SDS011;27636;52.610;13.244;2023-04-09T03:58:59;28.00;;;11.30;;
41943;SDS011;27636;52.610;13.244;2023-04-09T04:04:13;28.80;;;12.93;;
41943;SDS011;27636;52.610;13.244;2023-04-09T04:09:24;29.33;;;13.00;;
41943;SDS011;27636;52.610;13.244;2023-04-09T04:14:35;33.60;;;14.35;;
41943;SDS011;27636;52.610;13.244;2023-04-09T04:19:51;38.50;;;11.37;;
41943;SDS011;27636;52.610;13.244;2023-04-09T04:24:55;34.63;;;12.65;;
41943;SDS011;27636;52.610;13.244;2023-04-09T04:29:59;35.88;;;13.52;;
41943;SDS011;27636;52.610;13.244;2023-04-09T04:35:31;34.25;;;11.27;;
41943;SDS011;27636;52.610;13.244;2023-04-09T04:40:37;33.47;;;12.70;;
41943;SDS011;27636;52.610;13.244;2023-04-09T04:45:42;36.03;;;12.07;;
41943;SDS011;27636;52.610;13.244;2023-04-09T04:50:54;36.85;;;13.73;;
41943;SDS011;27636;52.610;13.244;2023-04-09T04:56:00;37.15;;;13.52;;
41943;SDS011;27636;52.610;13.244;2023-04-09T05:01:04;42.60;;;13.02;;
41943;SDS011;27636;52.610;13.244;2023-04-09T05:06:09;38.20;;;14.90;;
41943;SDS011;27636;52.610;13.244;2023-04-09T05:11:18;32.33;;;12.00;;
41943;SDS011;27636;52.610;13.244;2023-04-09T05:16:23;40.08;;;13.52;;
41943;SDS011;27636;52.610;13.244;2023-04-09T05:21:37;40.05;;;13.80;;
41943;SDS011;27636;52.610;13.244;2023-04-09T05:26:41;39.65;;;15.70;;
41943;SDS011;27636;52.610;13.244;2023-04-09T05:31:44;48.83;;;16.67;;
41943;SDS011;27636;52.610;13.244;2023-04-09T05:37:00;37.85;;;14.80;;
41943;SDS011;27636;52.610;13.244;2023-04-09T05:42:05;49.67;;;15.02;;
41943;SDS011;27636;52.610;13.244;2023-04-09T05:47:13;38.53;;;13.80;;
41943;SDS011;27636;52.610;13.244;2023-04-09T05:52:25;41.70;;;15.45;;
41943;SDS011;27636;52.610;13.244;2023-04-09T05:57:30;40.60;;;15.07;;
41943;SDS011;27636;52.610;13.244;2023-04-09T06:02:37;43.10;;;14.45;;
41943;SDS011;27636;52.610;13.244;2023-04-09T06:07:42;36.85;;;16.50;;
41943;SDS011;27636;52.610;13.244;2023-04-09T06:12:46;38.75;;;15.75;;
41943;SDS011;27636;52.610;13.244;2023-04-09T06:17:49;38.67;;;15.02;;
41943;SDS011;27636;52.610;13.244;2023-04-09T06:22:54;46.50;;;16.30;;
41943;SDS011;27636;52.610;13.244;2023-04-09T06:27:58;49.53;;;17.40;;
41943;SDS011;27636;52.610;13.244;2023-04-09T06:33:01;45.20;;;16.40;;
41943;SDS011;27636;52.610;13.244;2023-04-09T06:38:06;44.00;;;17.48;;
41943;SDS011;27636;52.610;13.244;2023-04-09T06:43:12;46.90;;;15.85;;
41943;SDS011;27636;52.610;13.244;2023-04-09T06:48:26;43.87;;;15.83;;
41943;SDS011;27636;52.610;13.244;2023-04-09T06:53:31;41.05;;;15.82;;
41943;SDS011;27636;52.610;13.244;2023-04-09T06:58:34;44.40;;;16.38;;
41943;SDS011;27636;52.610;13.244;2023-04-09T07:03:38;50.00;;;15.70;;
41943;SDS011;27636;52.610;13.244;2023-04-09T07:08:43;42.13;;;15.98;;
41943;SDS011;27636;52.610;13.244;2023-04-09T07:13:47;38.47;;;16.05;;
41943;SDS011;27636;52.610;13.244;2023-04-09T07:18:51;38.28;;;15.70;;
41943;SDS011;27636;52.610;13.244;2023-04-09T07:23:56;38.53;;;15.55;;
41943;SDS011;27636;52.610;13.244;2023-04-09T07:28:59;41.15;;;15.40;;
41943;SDS011;27636;52.610;13.244;2023-04-09T07:34:03;46.20;;;14.97;;
41943;SDS011;27636;52.610;13.244;2023-04-09T07:39:08;39.60;;;13.60;;
41943;SDS011;27636;52.610;13.244;2023-04-09T07:44:12;35.40;;;14.05;;
41943;SDS011;27636;52.610;13.244;2023-04-09T07:49:16;33.95;;;13.50;;
41943;SDS011;27636;52.610;13.244;2023-04-09T07:54:20;35.75;;;13.48;;
41943;SDS011;27636;52.610;13.244;2023-04-09T07:59:25;31.42;;;11.90;;
41943;SDS011;27636;52.610;13.244;2023-04-09T08:04:29;29.73;;;11.87;;
41943;SDS011;27636;52.610;13.244;2023-04-09T08:09:35;29.33;;;11.87;;
41943;SDS011;27636;52.610;13.244;2023-04-09T08:14:38;38.30;;;13.85;;
41943;SDS011;27636;52.610;13.244;2023-04-09T08:19:43;43.97;;;14.40;;
41943;SDS011;27636;52.610;13.244;2023-04-09T08:24:50;34.38;;;14.20;;
41943;SDS011;27636;52.610;13.244;2023-04-09T08:29:55;33.60;;;13.20;;
41943;SDS011;27636;52.610;13.244;2023-04-09T08:34:59;32.77;;;11.67;;
41943;SDS011;27636;52.610;13.244;2023-04-09T08:40:05;38.40;;;14.02;;
41943;SDS011;27636;52.610;13.244;2023-04-09T08:45:10;32.70;;;11.98;;
41943;SDS011;27636;52.610;13.244;2023-04-09T08:50:14;35.93;;;13.27;;
41943;SDS011;27636;52.610;13.244;2023-04-09T08:55:20;37.22;;;13.50;;
41943;SDS011;27636;52.610;13.244;2023-04-09T09:00:24;29.00;;;12.32;;
41943;SDS011;27636;52.610;13.244;2023-04-09T09:05:33;37.20;;;13.07;;
41943;SDS011;27636;52.610;13.244;2023-04-09T09:10:41;33.50;;;11.35;;
41943;SDS011;27636;52.610;13.244;2023-04-09T09:15:45;35.08;;;13.95;;
41943;SDS011;27636;52.610;13.244;2023-04-09T09:20:51;37.70;;;13.10;;
41943;SDS011;27636;52.610;13.244;2023-04-09T09:26:06;30.77;;;12.18;;
41943;SDS011;27636;52.610;13.244;2023-04-09T09:31:16;37.55;;;12.65;;
41943;SDS011;27636;52.610;13.244;2023-04-09T09:36:30;32.33;;;11.98;;
41943;SDS011;27636;52.610;13.244;2023-04-09T09:41:36;33.87;;;12.40;;
41943;SDS011;27636;52.610;13.244;2023-04-09T09:46:40;32.25;;;12.13;;
41943;SDS011;27636;52.610;13.244;2023-04-09T09:51:44;29.27;;;11.67;;
41943;SDS011;27636;52.610;13.244;2023-04-09T09:56:49;33.28;;;12.65;;
41943;SDS011;27636;52.610;13.244;2023-04-09T10:01:55;30.92;;;11.65;;
41943;SDS011;27636;52.610;13.244;2023-04-09T10:07:03;33.60;;;12.25;;
41943;SDS011;27636;52.610;13.244;2023-04-09T10:12:10;26.85;;;10.32;;
41943;SDS011;27636;52.610;13.244;2023-04-09T10:17:13;31.23;;;11.23;;
41943;SDS011;27636;52.610;13.244;2023-04-09T10:22:17;29.67;;;11.10;;
41943;SDS011;27636;52.610;13.244;2023-04-09T10:27:26;26.10;;;11.00;;
41943;SDS011;27636;52.610;13.244;2023-04-09T10:37:38;39.58;;;12.80;;
41943;SDS011;27636;52.610;13.244;2023-04-09T10:42:54;35.47;;;12.45;;
41943;SDS011;27636;52.610;13.244;2023-04-09T10:47:59;34.10;;;12.30;;
41943;SDS011;27636;52.610;13.244;2023-04-09T10:53:05;32.40;;;13.27;;
41943;SDS011;27636;52.610;13.244;2023-04-09T10:58:09;31.70;;;12.70;;
41943;SDS011;27636;52.610;13.244;2023-04-09T11:03:22;32.60;;;12.38;;
41943;SDS011;27636;52.610;13.244;2023-04-09T11:08:28;31.80;;;11.32;;
41943;SDS011;27636;52.610;13.244;2023-04-09T11:23:41;27.88;;;11.57;;
41943;SDS011;27636;52.610;13.244;2023-04-09T11:28:55;28.67;;;11.15;;
41943;SDS011;27636;52.610;13.244;2023-04-09T11:33:59;27.40;;;11.60;;
41943;SDS011;27636;52.610;13.244;2023-04-09T11:39:03;29.35;;;12.27;;
41943;SDS011;27636;52.610;13.244;2023-04-09T11:44:08;32.03;;;11.95;;
41943;SDS011;27636;52.610;13.244;2023-04-09T11:49:11;26.15;;;11.63;;
41943;SDS011;27636;52.610;13.244;2023-04-09T11:54:15;29.48;;;10.95;;
41943;SDS011;27636;52.610;13.244;2023-04-09T11:59:20;25.42;;;12.27;;
41943;SDS011;27636;52.610;13.244;2023-04-09T12:04:24;23.63;;;10.55;;
41943;SDS011;27636;52.610;13.244;2023-04-09T12:09:28;24.33;;;11.35;;
41943;SDS011;27636;52.610;13.244;2023-04-09T12:14:32;23.13;;;10.55;;
41943;SDS011;27636;52.610;13.244;2023-04-09T12:19:37;26.50;;;11.35;;
41943;SDS011;27636;52.610;13.244;2023-04-09T12:24:40;23.20;;;11.63;;
41943;SDS011;27636;52.610;13.244;2023-04-09T12:29:45;26.30;;;11.35;;
41943;SDS011;27636;52.610;13.244;2023-04-09T12:34:49;26.42;;;10.73;;
41943;SDS011;27636;52.610;13.244;2023-04-09T12:39:52;23.92;;;11.13;;
41943;SDS011;27636;52.610;13.244;2023-04-09T12:44:57;21.52;;;9.82;;
41943;SDS011;27636;52.610;13.244;2023-04-09T12:50:01;23.42;;;10.18;;
41943;SDS011;27636;52.610;13.244;2023-04-09T12:55:05;23.98;;;10.70;;
41943;SDS011;27636;52.610;13.244;2023-04-09T13:00:11;75.03;;;28.23;;
41943;SDS011;27636;52.610;13.244;2023-04-09T13:05:16;20.77;;;10.57;;
41943;SDS011;27636;52.610;13.244;2023-04-09T13:10:19;22.58;;;9.82;;
41943;SDS011;27636;52.610;13.244;2023-04-09T13:15:24;22.08;;;10.55;;
41943;SDS011;27636;52.610;13.244;2023-04-09T13:20:29;25.83;;;10.85;;
41943;SDS011;27636;52.610;13.244;2023-04-09T13:25:32;24.90;;;11.23;;
41943;SDS011;27636;52.610;13.244;2023-04-09T13:30:37;22.50;;;9.45;;
41943;SDS011;27636;52.610;13.244;2023-04-09T13:40:44;22.73;;;10.27;;
41943;SDS011;27636;52.610;13.244;2023-04-09T13:45:49;23.48;;;10.80;;
41943;SDS011;27636;52.610;13.244;2023-04-09T13:50:52;21.58;;;10.50;;
41943;SDS011;27636;52.610;13.244;2023-04-09T13:55:55;20.80;;;9.93;;
41943;SDS011;27636;52.610;13.244;2023-04-09T14:01:00;20.25;;;9.30;;
41943;SDS011;27636;52.610;13.244;2023-04-09T14:06:05;19.15;;;8.40;;
41943;SDS011;27636;52.610;13.244;2023-04-09T14:11:10;22.05;;;9.30;;
41943;SDS011;27636;52.610;13.244;2023-04-09T14:16:18;24.52;;;10.10;;
41943;SDS011;27636;52.610;13.244;2023-04-09T14:21:22;21.08;;;9.90;;
41943;SDS011;27636;52.610;13.244;2023-04-09T14:26:26;20.23;;;9.98;;
41943;SDS011;27636;52.610;13.244;2023-04-09T14:31:32;24.97;;;9.63;;
41943;SDS011;27636;52.610;13.244;2023-04-09T14:41:39;18.58;;;8.88;;
41943;SDS011;27636;52.610;13.244;2023-04-09T14:46:44;19.03;;;9.17;;
41943;SDS011;27636;52.610;13.244;2023-04-09T14:56:51;19.83;;;8.27;;
41943;SDS011;27636;52.610;13.244;2023-04-09T15:01:56;19.77;;;8.88;;
41943;SDS011;27636;52.610;13.244;2023-04-09T15:12:03;16.80;;;8.30;;
41943;SDS011;27636;52.610;13.244;2023-04-09T15:17:08;19.60;;;8.82;;
41943;SDS011;27636;52.610;13.244;2023-04-09T15:22:11;21.02;;;9.52;;
41943;SDS011;27636;52.610;13.244;2023-04-09T15:27:15;18.63;;;9.13;;
41943;SDS011;27636;52.610;13.244;2023-04-09T15:32:20;20.30;;;8.65;;
41943;SDS011;27636;52.610;13.244;2023-04-09T15:42:27;19.23;;;8.85;;
41943;SDS011;27636;52.610;13.244;2023-04-09T15:47:32;18.27;;;8.38;;
41943;SDS011;27636;52.610;13.244;2023-04-09T15:52:36;21.33;;;8.18;;
41943;SDS011;27636;52.610;13.244;2023-04-09T15:57:39;21.38;;;9.77;;
41943;SDS011;27636;52.610;13.244;2023-04-09T16:02:44;18.13;;;8.73;;
41943;SDS011;27636;52.610;13.244;2023-04-09T16:07:48;17.42;;;8.32;;
41943;SDS011;27636;52.610;13.244;2023-04-09T16:12:53;24.60;;;9.75;;
41943;SDS011;27636;52.610;13.244;2023-04-09T16:17:58;14.90;;;7.32;;
41943;SDS011;27636;52.610;13.244;2023-04-09T16:23:01;18.25;;;7.70;;
41943;SDS011;27636;52.610;13.244;2023-04-09T16:28:05;17.35;;;6.95;;
41943;SDS011;27636;52.610;13.244;2023-04-09T16:33:10;18.40;;;6.88;;
41943;SDS011;27636;52.610;13.244;2023-04-09T16:43:17;15.13;;;6.78;;
41943;SDS011;27636;52.610;13.244;2023-04-09T16:48:22;13.60;;;6.70;;
41943;SDS011;27636;52.610;13.244;2023-04-09T16:53:25;15.13;;;5.65;;
41943;SDS011;27636;52.610;13.244;2023-04-09T16:58:29;16.30;;;6.80;;
41943;SDS011;27636;52.610;13.244;2023-04-09T17:03:35;15.07;;;6.60;;
41943;SDS011;27636;52.610;13.244;2023-04-09T17:08:38;16.60;;;6.30;;
41943;SDS011;27636;52.610;13.244;2023-04-09T17:13:42;14.00;;;7.07;;
41943;SDS011;27636;52.610;13.244;2023-04-09T17:18:47;19.05;;;7.13;;
41943;SDS011;27636;52.610;13.244;2023-04-09T17:23:51;19.88;;;6.90;;
41943;SDS011;27636;52.610;13.244;2023-04-09T17:28:54;16.55;;;7.18;;
41943;SDS011;27636;52.610;13.244;2023-04-09T17:34:00;19.50;;;8.13;;
41943;SDS011;27636;52.610;13.244;2023-04-09T17:39:04;14.18;;;7.13;;
41943;SDS011;27636;52.610;13.244;2023-04-09T17:44:08;19.38;;;7.18;;
41943;SDS011;27636;52.610;13.244;2023-04-09T17:49:13;22.45;;;9.98;;
41943;SDS011;27636;52.610;13.244;2023-04-09T17:54:16;22.35;;;9.77;;
41943;SDS011;27636;52.610;13.244;2023-04-09T17:59:20;22.10;;;10.57;;
41943;SDS011;27636;52.610;13.244;2023-04-09T18:04:24;24.00;;;9.90;;
41943;SDS011;27636;52.610;13.244;2023-04-09T18:09:29;18.98;;;9.35;;
41943;SDS011;27636;52.610;13.244;2023-04-09T18:14:32;24.13;;;9.68;;
41943;SDS011;27636;52.610;13.244;2023-04-09T18:19:38;21.02;;;11.18;;
41943;SDS011;27636;52.610;13.244;2023-04-09T18:24:42;21.77;;;8.85;;
41943;SDS011;27636;52.610;13.244;2023-04-09T18:29:45;26.92;;;9.13;;
41943;SDS011;27636;52.610;13.244;2023-04-09T18:34:52;17.98;;;7.38;;
41943;SDS011;27636;52.610;13.244;2023-04-09T18:39:55;19.17;;;7.57;;
41943;SDS011;27636;52.610;13.244;2023-04-09T18:45:01;25.45;;;9.13;;
41943;SDS011;27636;52.610;13.244;2023-04-09T18:50:07;18.58;;;7.68;;
41943;SDS011;27636;52.610;13.244;2023-04-09T18:55:12;20.75;;;8.95;;
41943;SDS011;27636;52.610;13.244;2023-04-09T19:00:16;18.95;;;7.43;;
41943;SDS011;27636;52.610;13.244;2023-04-09T19:05:21;18.48;;;7.63;;
41943;SDS011;27636;52.610;13.244;2023-04-09T19:10:25;18.42;;;7.43;;
41943;SDS011;27636;52.610;13.244;2023-04-09T19:15:28;20.42;;;8.27;;
41943;SDS011;27636;52.610;13.244;2023-04-09T19:20:34;16.50;;;7.20;;
41943;SDS011;27636;52.610;13.244;2023-04-09T19:25:39;23.02;;;9.05;;
41943;SDS011;27636;52.610;13.244;2023-04-09T19:30:42;23.27;;;8.13;;
41943;SDS011;27636;52.610;13.244;2023-04-09T19:35:47;20.20;;;7.93;;
41943;SDS011;27636;52.610;13.244;2023-04-09T19:40:51;22.60;;;8.43;;
41943;SDS011;27636;52.610;13.244;2023-04-09T19:45:55;29.17;;;11.43;;
41943;SDS011;27636;52.610;13.244;2023-04-09T19:51:00;23.58;;;9.35;;
41943;SDS011;27636;52.610;13.244;2023-04-09T19:56:04;21.08;;;9.13;;
41943;SDS011;27636;52.610;13.244;2023-04-09T20:01:08;27.45;;;9.45;;
41943;SDS011;27636;52.610;13.244;2023-04-09T20:06:13;24.48;;;10.65;;
41943;SDS011;27636;52.610;13.244;2023-04-09T20:16:20;23.02;;;10.10;;
41943;SDS011;27636;52.610;13.244;2023-04-09T20:21:25;27.03;;;10.93;;
41943;SDS011;27636;52.610;13.244;2023-04-09T20:26:29;26.45;;;11.30;;
41943;SDS011;27636;52.610;13.244;2023-04-09T20:31:33;23.08;;;9.73;;
41943;SDS011;27636;52.610;13.244;2023-04-09T20:36:38;29.10;;;10.98;;
41943;SDS011;27636;52.610;13.244;2023-04-09T20:41:45;28.83;;;10.13;;
41943;SDS011;27636;52.610;13.244;2023-04-09T20:46:49;23.13;;;9.88;;
41943;SDS011;27636;52.610;13.244;2023-04-09T20:51:54;25.02;;;12.05;;
41943;SDS011;27636;52.610;13.244;2023-04-09T20:56:58;25.38;;;10.27;;
41943;SDS011;27636;52.610;13.244;2023-04-09T21:02:03;30.75;;;12.50;;
41943;SDS011;27636;52.610;13.244;2023-04-09T21:07:08;23.45;;;10.57;;
41943;SDS011;27636;52.610;13.244;2023-04-09T21:12:11;27.02;;;11.60;;
41943;SDS011;27636;52.610;13.244;2023-04-09T21:17:16;25.55;;;11.48;;
41943;SDS011;27636;52.610;13.244;2023-04-09T21:22:21;28.27;;;11.38;;
41943;SDS011;27636;52.610;13.244;2023-04-09T21:27:25;26.20;;;10.95;;
41943;SDS011;27636;52.610;13.244;2023-04-09T21:32:29;33.17;;;12.95;;
41943;SDS011;27636;52.610;13.244;2023-04-09T21:37:36;25.73;;;10.07;;
41943;SDS011;27636;52.610;13.244;2023-04-09T21:42:40;26.58;;;12.68;;
41943;SDS011;27636;52.610;13.244;2023-04-09T21:47:43;27.00;;;12.20;;
41943;SDS011;27636;52.610;13.244;2023-04-09T21:52:48;25.35;;;10.65;;
41943;SDS011;27636;52.610;13.244;2023-04-09T21:57:52;31.58;;;12.18;;
41943;SDS011;27636;52.610;13.244;2023-04-09T22:02:57;30.90;;;11.33;;
41943;SDS011;27636;52.610;13.244;2023-04-09T22:08:05;29.58;;;11.07;;
41943;SDS011;27636;52.610;13.244;2023-04-09T22:13:09;28.55;;;11.55;;
41943;SDS011;27636;52.610;13.244;2023-04-09T22:18:12;27.50;;;11.63;;
41943;SDS011;27636;52.610;13.244;2023-04-09T22:23:17;29.25;;;11.95;;
41943;SDS011;27636;52.610;13.244;2023-04-09T22:28:20;30.67;;;11.88;;
41943;SDS011;27636;52.610;13.244;2023-04-09T22:33:24;29.30;;;12.90;;
41943;SDS011;27636;52.610;13.244;2023-04-09T22:38:29;44.22;;;15.23;;
41943;SDS011;27636;52.610;13.244;2023-04-09T22:43:33;28.30;;;10.80;;
41943;SDS011;27636;52.610;13.244;2023-04-09T22:48:36;31.02;;;14.63;;
41943;SDS011;27636;52.610;13.244;2023-04-09T22:53:48;26.70;;;11.43;;
41943;SDS011;27636;52.610;13.244;2023-04-09T22:58:51;32.28;;;14.70;;
41943;SDS011;27636;52.610;13.244;2023-04-09T23:03:55;27.38;;;14.25;;
41943;SDS011;27636;52.610;13.244;2023-04-09T23:08:59;29.73;;;13.75;;
41943;SDS011;27636;52.610;13.244;2023-04-09T23:14:03;30.83;;;12.80;;
41943;SDS011;27636;52.610;13.244;2023-04-09T23:19:06;38.15;;;15.13;;
41943;SDS011;27636;52.610;13.244;2023-04-09T23:24:11;36.08;;;14.43;;
41943;SDS011;27636;52.610;13.244;2023-04-09T23:29:15;32.97;;;15.70;;
41943;SDS011;27636;52.610;13.244;2023-04-09T23:34:19;35.40;;;14.45;;
41943;SDS011;27636;52.610;13.244;2023-04-09T23:39:23;30.55;;;14.43;;
41943;SDS011;27636;52.610;13.244;2023-04-09T23:44:27;35.17;;;15.88;;
41943;SDS011;27636;52.610;13.244;2023-04-09T23:49:30;35.92;;;15.90;;
41943;SDS011;27636;52.610;13.244;2023-04-09T23:54:35;36.25;;;17.38;;
41943;SDS011;27636;52.610;13.244;2023-04-09T23:59:38;36.88;;;16.80;;
